Terminal Aerodrome Forecast
Issued by NWS

Home | Current Version | Previous Version | Text Only | Print | Product List | Glossary On
Versions: 1 2 3 4 5 6 7 8 9 10 11 12 13
241
FTUS44 KCRP 232333
TAFLRD
TAF
KLRD 232333Z 2400/2424 16007KT P6SM SKC
     FM240300 14009KT P6SM SKC
     FM241200 34008KT P6SM SKC
     FM241600 35017G23KT P6SM SKC=

USA.gov is the U.S. government's official web portal to all federal, state and local government web resources and services.